sensor_id;sensor_type;location;lat;lon;timestamp;temperature;humidity
23311;DHT22;11828;51.508;18.118;2022-07-22T00:01:39;40.30;26.80
23311;DHT22;11828;51.508;18.118;2022-07-22T00:04:05;40.30;26.90
23311;DHT22;11828;51.508;18.118;2022-07-22T00:06:31;40.20;26.80
23311;DHT22;11828;51.508;18.118;2022-07-22T00:08:58;40.20;26.90
23311;DHT22;11828;51.508;18.118;2022-07-22T00:11:24;40.10;26.90
23311;DHT22;11828;51.508;18.118;2022-07-22T00:13:49;40.20;27.00
23311;DHT22;11828;51.508;18.118;2022-07-22T00:16:16;40.10;27.00
23311;DHT22;11828;51.508;18.118;2022-07-22T00:18:42;40.10;27.00
23311;DHT22;11828;51.508;18.118;2022-07-22T00:21:08;40.10;27.20
23311;DHT22;11828;51.508;18.118;2022-07-22T00:23:34;40.10;27.20
23311;DHT22;11828;51.508;18.118;2022-07-22T00:26:00;40.00;27.20
23311;DHT22;11828;51.508;18.118;2022-07-22T00:28:26;40.00;27.20
23311;DHT22;11828;51.508;18.118;2022-07-22T00:30:53;40.00;27.20
23311;DHT22;11828;51.508;18.118;2022-07-22T00:33:19;40.00;27.20
23311;DHT22;11828;51.508;18.118;2022-07-22T00:35:45;40.00;27.30
23311;DHT22;11828;51.508;18.118;2022-07-22T00:38:11;39.90;27.30
23311;DHT22;11828;51.508;18.118;2022-07-22T00:40:37;39.90;27.30
23311;DHT22;11828;51.508;18.118;2022-07-22T00:43:03;39.90;27.40
23311;DHT22;11828;51.508;18.118;2022-07-22T00:45:29;39.80;27.40
23311;DHT22;11828;51.508;18.118;2022-07-22T00:47:55;39.80;27.40
23311;DHT22;11828;51.508;18.118;2022-07-22T00:50:21;39.80;27.50
23311;DHT22;11828;51.508;18.118;2022-07-22T00:52:49;39.70;27.50
23311;DHT22;11828;51.508;18.118;2022-07-22T00:55:15;39.70;27.50
23311;DHT22;11828;51.508;18.118;2022-07-22T00:57:42;39.70;27.60
23311;DHT22;11828;51.508;18.118;2022-07-22T01:00:13;39.60;27.50
23311;DHT22;11828;51.508;18.118;2022-07-22T01:02:43;39.60;27.60
23311;DHT22;11828;51.508;18.118;2022-07-22T01:05:09;39.60;27.60
23311;DHT22;11828;51.508;18.118;2022-07-22T01:07:37;39.60;27.70
23311;DHT22;11828;51.508;18.118;2022-07-22T01:10:05;39.50;27.70
23311;DHT22;11828;51.508;18.118;2022-07-22T01:12:32;39.50;27.80
23311;DHT22;11828;51.508;18.118;2022-07-22T01:14:58;39.40;27.80
23311;DHT22;11828;51.508;18.118;2022-07-22T01:17:24;39.40;27.80
23311;DHT22;11828;51.508;18.118;2022-07-22T01:19:50;39.40;27.80
23311;DHT22;11828;51.508;18.118;2022-07-22T01:22:17;39.40;27.90
23311;DHT22;11828;51.508;18.118;2022-07-22T01:24:42;39.30;27.90
23311;DHT22;11828;51.508;18.118;2022-07-22T01:27:08;39.30;27.90
23311;DHT22;11828;51.508;18.118;2022-07-22T01:29:35;39.30;27.90
23311;DHT22;11828;51.508;18.118;2022-07-22T01:32:01;39.30;27.90
23311;DHT22;11828;51.508;18.118;2022-07-22T01:34:26;39.30;27.90
23311;DHT22;11828;51.508;18.118;2022-07-22T01:36:53;39.30;28.00
23311;DHT22;11828;51.508;18.118;2022-07-22T01:39:19;39.30;28.10
23311;DHT22;11828;51.508;18.118;2022-07-22T01:41:45;39.20;28.00
23311;DHT22;11828;51.508;18.118;2022-07-22T01:44:11;39.20;28.10
23311;DHT22;11828;51.508;18.118;2022-07-22T01:46:37;39.20;28.10
23311;DHT22;11828;51.508;18.118;2022-07-22T01:49:03;39.20;28.20
23311;DHT22;11828;51.508;18.118;2022-07-22T01:51:29;39.20;28.20
23311;DHT22;11828;51.508;18.118;2022-07-22T01:53:56;39.20;28.20
23311;DHT22;11828;51.508;18.118;2022-07-22T01:56:21;39.20;28.30
23311;DHT22;11828;51.508;18.118;2022-07-22T01:58:47;39.10;28.30
23311;DHT22;11828;51.508;18.118;2022-07-22T02:01:14;39.20;28.80
23311;DHT22;11828;51.508;18.118;2022-07-22T02:03:39;39.20;28.30
23311;DHT22;11828;51.508;18.118;2022-07-22T02:06:06;39.20;28.30
23311;DHT22;11828;51.508;18.118;2022-07-22T02:08:32;39.10;28.30
23311;DHT22;11828;51.508;18.118;2022-07-22T02:10:59;39.10;28.40
23311;DHT22;11828;51.508;18.118;2022-07-22T02:13:25;39.10;28.40
23311;DHT22;11828;51.508;18.118;2022-07-22T02:15:51;39.10;28.40
23311;DHT22;11828;51.508;18.118;2022-07-22T02:18:18;39.10;28.40
23311;DHT22;11828;51.508;18.118;2022-07-22T02:20:45;39.10;28.40
23311;DHT22;11828;51.508;18.118;2022-07-22T02:23:12;39.10;28.50
23311;DHT22;11828;51.508;18.118;2022-07-22T02:25:39;39.00;28.50
23311;DHT22;11828;51.508;18.118;2022-07-22T02:28:06;39.10;28.40
23311;DHT22;11828;51.508;18.118;2022-07-22T02:30:33;39.10;28.50
23311;DHT22;11828;51.508;18.118;2022-07-22T02:32:59;39.10;28.50
23311;DHT22;11828;51.508;18.118;2022-07-22T02:35:25;39.10;28.50
23311;DHT22;11828;51.508;18.118;2022-07-22T02:37:51;39.10;28.50
23311;DHT22;11828;51.508;18.118;2022-07-22T02:40:17;39.00;28.40
23311;DHT22;11828;51.508;18.118;2022-07-22T02:42:43;39.00;28.50
23311;DHT22;11828;51.508;18.118;2022-07-22T02:45:10;39.00;28.50
23311;DHT22;11828;51.508;18.118;2022-07-22T02:47:45;39.10;28.60
23311;DHT22;11828;51.508;18.118;2022-07-22T02:50:13;39.00;28.60
23311;DHT22;11828;51.508;18.118;2022-07-22T02:52:39;39.00;28.50
23311;DHT22;11828;51.508;18.118;2022-07-22T02:55:05;39.00;29.00
23311;DHT22;11828;51.508;18.118;2022-07-22T02:57:31;39.10;28.60
23311;DHT22;11828;51.508;18.118;2022-07-22T02:59:57;39.00;28.50
23311;DHT22;11828;51.508;18.118;2022-07-22T03:02:23;39.00;28.50
23311;DHT22;11828;51.508;18.118;2022-07-22T03:04:50;39.00;28.50
23311;DHT22;11828;51.508;18.118;2022-07-22T03:07:15;39.00;28.50
23311;DHT22;11828;51.508;18.118;2022-07-22T03:09:41;39.00;28.50
23311;DHT22;11828;51.508;18.118;2022-07-22T03:12:08;39.00;28.50
23311;DHT22;11828;51.508;18.118;2022-07-22T03:14:34;39.10;28.60
23311;DHT22;11828;51.508;18.118;2022-07-22T03:17:00;39.10;28.60
23311;DHT22;11828;51.508;18.118;2022-07-22T03:19:26;39.10;28.60
23311;DHT22;11828;51.508;18.118;2022-07-22T03:21:52;39.10;28.60
23311;DHT22;11828;51.508;18.118;2022-07-22T03:24:18;39.10;28.60
23311;DHT22;11828;51.508;18.118;2022-07-22T03:26:44;39.10;28.60
23311;DHT22;11828;51.508;18.118;2022-07-22T03:29:10;39.10;28.60
23311;DHT22;11828;51.508;18.118;2022-07-22T03:31:36;39.10;28.70
23311;DHT22;11828;51.508;18.118;2022-07-22T03:34:02;39.10;28.70
23311;DHT22;11828;51.508;18.118;2022-07-22T03:36:28;39.10;28.70
23311;DHT22;11828;51.508;18.118;2022-07-22T03:38:55;39.10;28.70
23311;DHT22;11828;51.508;18.118;2022-07-22T03:41:22;39.10;28.70
23311;DHT22;11828;51.508;18.118;2022-07-22T03:43:48;39.10;28.60
23311;DHT22;11828;51.508;18.118;2022-07-22T03:46:14;39.10;28.70
23311;DHT22;11828;51.508;18.118;2022-07-22T03:48:40;39.10;28.70
23311;DHT22;11828;51.508;18.118;2022-07-22T03:51:06;39.10;28.70
23311;DHT22;11828;51.508;18.118;2022-07-22T03:53:32;39.10;28.70
23311;DHT22;11828;51.508;18.118;2022-07-22T03:55:59;39.10;28.80
23311;DHT22;11828;51.508;18.118;2022-07-22T03:58:26;39.00;28.80
23311;DHT22;11828;51.508;18.118;2022-07-22T04:00:53;39.00;29.00
23311;DHT22;11828;51.508;18.118;2022-07-22T04:03:21;39.00;29.00
23311;DHT22;11828;51.508;18.118;2022-07-22T04:05:47;39.00;29.10
23311;DHT22;11828;51.508;18.118;2022-07-22T04:08:13;39.10;29.00
23311;DHT22;11828;51.508;18.118;2022-07-22T04:10:39;39.10;29.10
23311;DHT22;11828;51.508;18.118;2022-07-22T04:13:05;39.20;29.00
23311;DHT22;11828;51.508;18.118;2022-07-22T04:15:31;39.30;29.00
23311;DHT22;11828;51.508;18.118;2022-07-22T04:17:57;39.40;28.90
23311;DHT22;11828;51.508;18.118;2022-07-22T04:20:23;39.50;28.90
23311;DHT22;11828;51.508;18.118;2022-07-22T04:22:50;39.50;28.90
23311;DHT22;11828;51.508;18.118;2022-07-22T04:25:16;39.60;29.00
23311;DHT22;11828;51.508;18.118;2022-07-22T04:27:42;39.60;28.90
23311;DHT22;11828;51.508;18.118;2022-07-22T04:30:08;39.70;28.90
23311;DHT22;11828;51.508;18.118;2022-07-22T04:32:34;39.80;28.90
23311;DHT22;11828;51.508;18.118;2022-07-22T04:35:01;39.70;28.80
23311;DHT22;11828;51.508;18.118;2022-07-22T04:37:27;39.70;28.80
23311;DHT22;11828;51.508;18.118;2022-07-22T04:39:54;39.80;28.90
23311;DHT22;11828;51.508;18.118;2022-07-22T04:42:20;39.80;28.90
23311;DHT22;11828;51.508;18.118;2022-07-22T04:44:46;39.80;28.80
23311;DHT22;11828;51.508;18.118;2022-07-22T04:47:13;39.90;28.90
23311;DHT22;11828;51.508;18.118;2022-07-22T04:49:39;39.90;28.80
23311;DHT22;11828;51.508;18.118;2022-07-22T04:52:05;40.00;28.80
23311;DHT22;11828;51.508;18.118;2022-07-22T04:54:32;40.00;28.80
23311;DHT22;11828;51.508;18.118;2022-07-22T04:56:58;40.00;28.60
23311;DHT22;11828;51.508;18.118;2022-07-22T04:59:24;40.10;28.70
23311;DHT22;11828;51.508;18.118;2022-07-22T05:01:50;40.00;28.60
23311;DHT22;11828;51.508;18.118;2022-07-22T05:04:16;40.00;28.70
23311;DHT22;11828;51.508;18.118;2022-07-22T05:06:42;40.00;28.80
23311;DHT22;11828;51.508;18.118;2022-07-22T05:09:08;40.00;28.90
23311;DHT22;11828;51.508;18.118;2022-07-22T05:11:34;40.00;28.90
23311;DHT22;11828;51.508;18.118;2022-07-22T05:14:00;40.10;28.90
23311;DHT22;11828;51.508;18.118;2022-07-22T05:16:27;40.10;28.80
23311;DHT22;11828;51.508;18.118;2022-07-22T05:18:52;40.20;28.80
23311;DHT22;11828;51.508;18.118;2022-07-22T05:21:18;40.20;28.80
23311;DHT22;11828;51.508;18.118;2022-07-22T05:23:45;40.30;28.80
23311;DHT22;11828;51.508;18.118;2022-07-22T05:26:11;40.30;28.70
23311;DHT22;11828;51.508;18.118;2022-07-22T05:28:37;40.30;28.70
23311;DHT22;11828;51.508;18.118;2022-07-22T05:31:03;40.30;28.70
23311;DHT22;11828;51.508;18.118;2022-07-22T05:33:29;40.40;28.70
23311;DHT22;11828;51.508;18.118;2022-07-22T05:35:55;40.40;28.60
23311;DHT22;11828;51.508;18.118;2022-07-22T05:38:21;40.50;28.60
23311;DHT22;11828;51.508;18.118;2022-07-22T05:40:47;40.40;28.60
23311;DHT22;11828;51.508;18.118;2022-07-22T05:43:13;40.40;28.50
23311;DHT22;11828;51.508;18.118;2022-07-22T05:45:39;40.40;28.50
23311;DHT22;11828;51.508;18.118;2022-07-22T05:48:05;40.40;28.50
23311;DHT22;11828;51.508;18.118;2022-07-22T05:50:31;40.40;28.60
23311;DHT22;11828;51.508;18.118;2022-07-22T05:52:57;40.50;28.80
23311;DHT22;11828;51.508;18.118;2022-07-22T05:55:23;40.50;28.80
23311;DHT22;11828;51.508;18.118;2022-07-22T05:57:49;40.60;28.70
23311;DHT22;11828;51.508;18.118;2022-07-22T06:00:16;40.80;28.50
23311;DHT22;11828;51.508;18.118;2022-07-22T06:02:42;40.90;28.30
23311;DHT22;11828;51.508;18.118;2022-07-22T06:05:08;41.00;28.20
23311;DHT22;11828;51.508;18.118;2022-07-22T06:07:34;41.10;28.00
23311;DHT22;11828;51.508;18.118;2022-07-22T06:10:00;41.30;27.90
23311;DHT22;11828;51.508;18.118;2022-07-22T06:12:26;41.40;27.90
23311;DHT22;11828;51.508;18.118;2022-07-22T06:14:52;41.40;27.70
23311;DHT22;11828;51.508;18.118;2022-07-22T06:17:18;41.50;27.90
23311;DHT22;11828;51.508;18.118;2022-07-22T06:19:44;41.50;27.70
23311;DHT22;11828;51.508;18.118;2022-07-22T06:22:10;41.70;27.70
23311;DHT22;11828;51.508;18.118;2022-07-22T06:24:37;41.80;27.60
23311;DHT22;11828;51.508;18.118;2022-07-22T06:27:03;41.90;27.60
23311;DHT22;11828;51.508;18.118;2022-07-22T06:29:29;42.00;27.40
23311;DHT22;11828;51.508;18.118;2022-07-22T06:31:55;42.10;27.20
23311;DHT22;11828;51.508;18.118;2022-07-22T06:34:21;42.20;27.20
23311;DHT22;11828;51.508;18.118;2022-07-22T06:36:48;42.30;27.00
23311;DHT22;11828;51.508;18.118;2022-07-22T06:39:14;42.40;26.80
23311;DHT22;11828;51.508;18.118;2022-07-22T06:41:40;42.50;26.60
23311;DHT22;11828;51.508;18.118;2022-07-22T06:44:06;42.50;26.50
23311;DHT22;11828;51.508;18.118;2022-07-22T06:46:32;42.60;26.50
23311;DHT22;11828;51.508;18.118;2022-07-22T06:48:58;42.70;26.50
23311;DHT22;11828;51.508;18.118;2022-07-22T06:51:24;42.70;26.40
23311;DHT22;11828;51.508;18.118;2022-07-22T06:53:50;42.70;26.40
23311;DHT22;11828;51.508;18.118;2022-07-22T06:56:16;42.80;26.40
23311;DHT22;11828;51.508;18.118;2022-07-22T06:58:42;42.80;26.50
23311;DHT22;11828;51.508;18.118;2022-07-22T07:01:08;43.20;25.80
23311;DHT22;11828;51.508;18.118;2022-07-22T07:03:34;43.40;26.50
23311;DHT22;11828;51.508;18.118;2022-07-22T07:06:00;44.00;26.20
23311;DHT22;11828;51.508;18.118;2022-07-22T07:08:27;44.80;25.60
23311;DHT22;11828;51.508;18.118;2022-07-22T07:10:53;45.70;25.00
23311;DHT22;11828;51.508;18.118;2022-07-22T07:13:19;46.30;24.10
23311;DHT22;11828;51.508;18.118;2022-07-22T07:15:45;47.00;23.70
23311;DHT22;11828;51.508;18.118;2022-07-22T07:18:11;47.70;23.20
23311;DHT22;11828;51.508;18.118;2022-07-22T07:20:37;48.10;22.80
23311;DHT22;11828;51.508;18.118;2022-07-22T07:28:01;49.50;20.90
23311;DHT22;11828;51.508;18.118;2022-07-22T07:30:27;50.00;21.30
23311;DHT22;11828;51.508;18.118;2022-07-22T07:32:53;50.60;21.10
23311;DHT22;11828;51.508;18.118;2022-07-22T07:35:19;51.00;20.50
23311;DHT22;11828;51.508;18.118;2022-07-22T07:37:46;51.60;20.30
23311;DHT22;11828;51.508;18.118;2022-07-22T07:47:33;53.10;18.80
23311;DHT22;11828;51.508;18.118;2022-07-22T07:49:59;53.40;18.90
23311;DHT22;11828;51.508;18.118;2022-07-22T07:52:28;53.60;18.80
23311;DHT22;11828;51.508;18.118;2022-07-22T07:54:54;53.70;18.60
23311;DHT22;11828;51.508;18.118;2022-07-22T07:57:21;53.90;18.40
23311;DHT22;11828;51.508;18.118;2022-07-22T07:59:47;54.50;26.10
23311;DHT22;11828;51.508;18.118;2022-07-22T08:04:40;54.40;17.50
23311;DHT22;11828;51.508;18.118;2022-07-22T08:07:06;54.60;17.80
23311;DHT22;11828;51.508;18.118;2022-07-22T08:09:33;54.80;17.80
23311;DHT22;11828;51.508;18.118;2022-07-22T08:12:01;54.90;17.40
23311;DHT22;11828;51.508;18.118;2022-07-22T08:14:29;55.00;16.80
23311;DHT22;11828;51.508;18.118;2022-07-22T08:17:10;55.00;17.20
23311;DHT22;11828;51.508;18.118;2022-07-22T08:19:37;55.30;16.80
23311;DHT22;11828;51.508;18.118;2022-07-22T08:22:03;55.50;17.20
23311;DHT22;11828;51.508;18.118;2022-07-22T08:24:29;55.50;17.00
23311;DHT22;11828;51.508;18.118;2022-07-22T08:26:55;55.60;16.80
23311;DHT22;11828;51.508;18.118;2022-07-22T08:29:21;55.80;16.60
23311;DHT22;11828;51.508;18.118;2022-07-22T08:31:47;55.70;16.50
23311;DHT22;11828;51.508;18.118;2022-07-22T08:34:14;55.70;16.70
23311;DHT22;11828;51.508;18.118;2022-07-22T08:39:06;55.80;16.20
23311;DHT22;11828;51.508;18.118;2022-07-22T08:41:37;56.00;16.60
23311;DHT22;11828;51.508;18.118;2022-07-22T08:44:05;56.00;16.70
23311;DHT22;11828;51.508;18.118;2022-07-22T08:46:33;56.30;17.00
23311;DHT22;11828;51.508;18.118;2022-07-22T08:48:59;56.40;16.40
23311;DHT22;11828;51.508;18.118;2022-07-22T08:51:27;56.30;16.10
23311;DHT22;11828;51.508;18.118;2022-07-22T08:53:55;56.10;16.20
23311;DHT22;11828;51.508;18.118;2022-07-22T08:56:21;56.10;22.10
23311;DHT22;11828;51.508;18.118;2022-07-22T08:58:47;56.10;16.10
23311;DHT22;11828;51.508;18.118;2022-07-22T09:01:15;56.10;15.80
23311;DHT22;11828;51.508;18.118;2022-07-22T09:03:46;56.20;21.20
23311;DHT22;11828;51.508;18.118;2022-07-22T09:06:17;56.10;15.80
23311;DHT22;11828;51.508;18.118;2022-07-22T09:11:30;56.30;15.90
23311;DHT22;11828;51.508;18.118;2022-07-22T09:13:59;56.40;15.90
23311;DHT22;11828;51.508;18.118;2022-07-22T09:16:42;56.60;16.00
23311;DHT22;11828;51.508;18.118;2022-07-22T09:19:13;56.60;15.80
23311;DHT22;11828;51.508;18.118;2022-07-22T09:24:08;57.20;15.00
23311;DHT22;11828;51.508;18.118;2022-07-22T09:26:39;57.10;15.90
23311;DHT22;11828;51.508;18.118;2022-07-22T09:29:06;56.60;15.30
23311;DHT22;11828;51.508;18.118;2022-07-22T09:31:34;56.20;15.60
23311;DHT22;11828;51.508;18.118;2022-07-22T09:34:02;55.90;15.70
23311;DHT22;11828;51.508;18.118;2022-07-22T09:36:29;55.70;16.10
23311;DHT22;11828;51.508;18.118;2022-07-22T09:38:56;55.40;15.80
23311;DHT22;11828;51.508;18.118;2022-07-22T09:41:23;55.40;15.90
23311;DHT22;11828;51.508;18.118;2022-07-22T09:43:49;55.70;15.90
23311;DHT22;11828;51.508;18.118;2022-07-22T09:46:34;56.00;15.80
23311;DHT22;11828;51.508;18.118;2022-07-22T09:49:02;56.20;15.40
23311;DHT22;11828;51.508;18.118;2022-07-22T09:51:29;56.40;15.20
23311;DHT22;11828;51.508;18.118;2022-07-22T09:53:55;56.20;15.30
23311;DHT22;11828;51.508;18.118;2022-07-22T09:56:23;56.30;15.60
23311;DHT22;11828;51.508;18.118;2022-07-22T09:58:49;56.60;15.20
23311;DHT22;11828;51.508;18.118;2022-07-22T10:01:16;56.80;15.10
23311;DHT22;11828;51.508;18.118;2022-07-22T10:03:44;57.10;14.90
23311;DHT22;11828;51.508;18.118;2022-07-22T10:06:10;56.90;14.70
23311;DHT22;11828;51.508;18.118;2022-07-22T10:08:37;56.40;14.90
23311;DHT22;11828;51.508;18.118;2022-07-22T10:11:06;55.60;14.80
23311;DHT22;11828;51.508;18.118;2022-07-22T10:13:33;54.70;15.30
23311;DHT22;11828;51.508;18.118;2022-07-22T10:16:00;54.00;16.20
23311;DHT22;11828;51.508;18.118;2022-07-22T10:18:27;53.90;16.90
23311;DHT22;11828;51.508;18.118;2022-07-22T10:21:30;54.20;16.60
23311;DHT22;11828;51.508;18.118;2022-07-22T10:24:11;54.60;16.60
23311;DHT22;11828;51.508;18.118;2022-07-22T10:26:53;54.90;18.50
23311;DHT22;11828;51.508;18.118;2022-07-22T10:29:41;55.10;16.00
23311;DHT22;11828;51.508;18.118;2022-07-22T10:35:28;54.00;16.10
23311;DHT22;11828;51.508;18.118;2022-07-22T10:40:21;53.70;16.50
23311;DHT22;11828;51.508;18.118;2022-07-22T10:48:25;51.90;16.70
23311;DHT22;11828;51.508;18.118;2022-07-22T10:51:08;51.70;17.00
23311;DHT22;11828;51.508;18.118;2022-07-22T10:56:20;51.20;16.90
23311;DHT22;11828;51.508;18.118;2022-07-22T10:58:57;51.10;17.20
23311;DHT22;11828;51.508;18.118;2022-07-22T11:01:44;51.00;17.50
23311;DHT22;11828;51.508;18.118;2022-07-22T11:04:17;51.10;17.40
23311;DHT22;11828;51.508;18.118;2022-07-22T11:06:47;51.20;17.50
23311;DHT22;11828;51.508;18.118;2022-07-22T11:09:19;51.50;20.10
23311;DHT22;11828;51.508;18.118;2022-07-22T11:11:51;51.70;17.40
23311;DHT22;11828;51.508;18.118;2022-07-22T11:14:30;51.70;17.30
23311;DHT22;11828;51.508;18.118;2022-07-22T11:17:03;51.70;17.10
23311;DHT22;11828;51.508;18.118;2022-07-22T11:19:34;51.50;17.40
23311;DHT22;11828;51.508;18.118;2022-07-22T11:22:07;51.10;17.70
23311;DHT22;11828;51.508;18.118;2022-07-22T11:24:35;50.60;18.00
23311;DHT22;11828;51.508;18.118;2022-07-22T11:27:03;50.00;18.20
23311;DHT22;11828;51.508;18.118;2022-07-22T11:29:31;49.50;18.30
23311;DHT22;11828;51.508;18.118;2022-07-22T11:32:04;49.10;18.90
23311;DHT22;11828;51.508;18.118;2022-07-22T11:34:32;48.70;19.20
23311;DHT22;11828;51.508;18.118;2022-07-22T11:36:58;48.50;19.50
23311;DHT22;11828;51.508;18.118;2022-07-22T11:39:29;48.40;19.50
23311;DHT22;11828;51.508;18.118;2022-07-22T11:41:58;48.70;19.40
23311;DHT22;11828;51.508;18.118;2022-07-22T11:44:28;49.20;19.80
23311;DHT22;11828;51.508;18.118;2022-07-22T11:46:55;49.40;19.40
23311;DHT22;11828;51.508;18.118;2022-07-22T11:49:26;49.80;19.50
23311;DHT22;11828;51.508;18.118;2022-07-22T11:51:53;50.10;19.00
23311;DHT22;11828;51.508;18.118;2022-07-22T11:54:20;50.50;19.00
23311;DHT22;11828;51.508;18.118;2022-07-22T11:56:46;50.90;18.80
23311;DHT22;11828;51.508;18.118;2022-07-22T11:59:14;51.20;18.60
23311;DHT22;11828;51.508;18.118;2022-07-22T12:01:44;51.40;18.40
23311;DHT22;11828;51.508;18.118;2022-07-22T12:04:18;51.50;17.80
23311;DHT22;11828;51.508;18.118;2022-07-22T12:06:45;51.20;18.00
23311;DHT22;11828;51.508;18.118;2022-07-22T12:09:17;50.70;18.20
23311;DHT22;11828;51.508;18.118;2022-07-22T12:11:48;50.20;18.30
23311;DHT22;11828;51.508;18.118;2022-07-22T12:14:23;49.50;18.60
23311;DHT22;11828;51.508;18.118;2022-07-22T12:16:59;49.20;19.30
23311;DHT22;11828;51.508;18.118;2022-07-22T12:19:35;48.70;19.40
23311;DHT22;11828;51.508;18.118;2022-07-22T12:22:10;48.40;19.70
23311;DHT22;11828;51.508;18.118;2022-07-22T12:24:44;48.10;19.90
23311;DHT22;11828;51.508;18.118;2022-07-22T12:27:14;47.80;20.30
23311;DHT22;11828;51.508;18.118;2022-07-22T12:29:47;47.60;20.40
23311;DHT22;11828;51.508;18.118;2022-07-22T12:34:58;47.60;21.00
23311;DHT22;11828;51.508;18.118;2022-07-22T12:37:42;47.90;20.90
23311;DHT22;11828;51.508;18.118;2022-07-22T12:40:21;48.40;20.40
23311;DHT22;11828;51.508;18.118;2022-07-22T12:43:05;48.90;20.60
23311;DHT22;11828;51.508;18.118;2022-07-22T12:45:37;49.40;19.40
23311;DHT22;11828;51.508;18.118;2022-07-22T12:50:35;50.00;19.10
23311;DHT22;11828;51.508;18.118;2022-07-22T12:53:14;50.30;18.90
23311;DHT22;11828;51.508;18.118;2022-07-22T12:58:27;50.30;18.40
23311;DHT22;11828;51.508;18.118;2022-07-22T13:01:00;50.10;18.80
23311;DHT22;11828;51.508;18.118;2022-07-22T13:03:28;49.80;18.70
23311;DHT22;11828;51.508;18.118;2022-07-22T13:06:00;49.70;18.70
23311;DHT22;11828;51.508;18.118;2022-07-22T13:08:27;49.20;18.70
23311;DHT22;11828;51.508;18.118;2022-07-22T13:10:54;48.90;19.30
23311;DHT22;11828;51.508;18.118;2022-07-22T13:13:21;48.50;19.70
23311;DHT22;11828;51.508;18.118;2022-07-22T13:15:48;48.20;19.90
23311;DHT22;11828;51.508;18.118;2022-07-22T13:18:16;48.20;19.80
23311;DHT22;11828;51.508;18.118;2022-07-22T13:20:42;48.60;19.80
23311;DHT22;11828;51.508;18.118;2022-07-22T13:23:08;49.20;19.50
23311;DHT22;11828;51.508;18.118;2022-07-22T13:25:35;49.60;19.10
23311;DHT22;11828;51.508;18.118;2022-07-22T13:28:01;49.90;19.20
23311;DHT22;11828;51.508;18.118;2022-07-22T13:30:28;49.80;18.70
23311;DHT22;11828;51.508;18.118;2022-07-22T13:32:54;49.50;18.70
23311;DHT22;11828;51.508;18.118;2022-07-22T13:35:20;49.10;18.80
23311;DHT22;11828;51.508;18.118;2022-07-22T13:37:46;48.80;19.10
23311;DHT22;11828;51.508;18.118;2022-07-22T13:40:13;48.50;19.40
23311;DHT22;11828;51.508;18.118;2022-07-22T13:42:39;48.60;19.90
23311;DHT22;11828;51.508;18.118;2022-07-22T13:45:06;48.70;19.30
23311;DHT22;11828;51.508;18.118;2022-07-22T13:47:36;49.10;19.20
23311;DHT22;11828;51.508;18.118;2022-07-22T13:50:02;49.50;19.00
23311;DHT22;11828;51.508;18.118;2022-07-22T13:52:29;49.90;18.70
23311;DHT22;11828;51.508;18.118;2022-07-22T13:57:21;50.30;17.70
23311;DHT22;11828;51.508;18.118;2022-07-22T13:59:47;50.70;18.10
23311;DHT22;11828;51.508;18.118;2022-07-22T14:02:14;50.70;17.70
23311;DHT22;11828;51.508;18.118;2022-07-22T14:04:40;50.30;17.80
23311;DHT22;11828;51.508;18.118;2022-07-22T14:07:06;50.00;18.30
23311;DHT22;11828;51.508;18.118;2022-07-22T14:09:32;49.50;17.90
23311;DHT22;11828;51.508;18.118;2022-07-22T14:11:58;49.20;18.10
23311;DHT22;11828;51.508;18.118;2022-07-22T14:14:24;49.00;18.40
23311;DHT22;11828;51.508;18.118;2022-07-22T14:16:51;48.80;18.40
23311;DHT22;11828;51.508;18.118;2022-07-22T14:19:17;48.70;18.50
23311;DHT22;11828;51.508;18.118;2022-07-22T14:21:44;48.70;18.90
23311;DHT22;11828;51.508;18.118;2022-07-22T14:24:11;48.80;18.80
23311;DHT22;11828;51.508;18.118;2022-07-22T14:26:38;49.10;18.80
23311;DHT22;11828;51.508;18.118;2022-07-22T14:29:05;49.70;19.10
23311;DHT22;11828;51.508;18.118;2022-07-22T14:31:34;50.60;18.70
23311;DHT22;11828;51.508;18.118;2022-07-22T14:34:01;50.90;17.70
23311;DHT22;11828;51.508;18.118;2022-07-22T14:36:26;51.50;17.30
23311;DHT22;11828;51.508;18.118;2022-07-22T14:38:53;51.90;19.20
23311;DHT22;11828;51.508;18.118;2022-07-22T14:41:20;52.00;16.70
23311;DHT22;11828;51.508;18.118;2022-07-22T14:43:46;51.70;16.40
23311;DHT22;11828;51.508;18.118;2022-07-22T14:46:12;51.30;16.90
23311;DHT22;11828;51.508;18.118;2022-07-22T14:48:38;50.60;17.10
23311;DHT22;11828;51.508;18.118;2022-07-22T14:51:05;50.00;18.00
23311;DHT22;11828;51.508;18.118;2022-07-22T14:53:32;49.50;18.30
23311;DHT22;11828;51.508;18.118;2022-07-22T14:55:58;49.10;18.10
23311;DHT22;11828;51.508;18.118;2022-07-22T14:58:24;48.60;18.30
23311;DHT22;11828;51.508;18.118;2022-07-22T15:00:50;48.20;18.70
23311;DHT22;11828;51.508;18.118;2022-07-22T15:03:16;48.00;19.30
23311;DHT22;11828;51.508;18.118;2022-07-22T15:05:42;48.30;19.50
23311;DHT22;11828;51.508;18.118;2022-07-22T15:08:09;48.90;19.50
23311;DHT22;11828;51.508;18.118;2022-07-22T15:10:36;49.60;19.20
23311;DHT22;11828;51.508;18.118;2022-07-22T15:13:02;50.30;19.00
23311;DHT22;11828;51.508;18.118;2022-07-22T15:15:29;50.80;18.60
23311;DHT22;11828;51.508;18.118;2022-07-22T15:17:56;51.20;18.20
23311;DHT22;11828;51.508;18.118;2022-07-22T15:20:23;51.60;18.00
23311;DHT22;11828;51.508;18.118;2022-07-22T15:22:50;51.90;17.90
23311;DHT22;11828;51.508;18.118;2022-07-22T15:25:17;52.20;17.50
23311;DHT22;11828;51.508;18.118;2022-07-22T15:27:43;52.40;17.30
23311;DHT22;11828;51.508;18.118;2022-07-22T15:30:09;52.70;17.30
23311;DHT22;11828;51.508;18.118;2022-07-22T15:32:37;52.70;16.90
23311;DHT22;11828;51.508;18.118;2022-07-22T15:35:04;52.20;17.40
23311;DHT22;11828;51.508;18.118;2022-07-22T15:37:31;51.70;17.00
23311;DHT22;11828;51.508;18.118;2022-07-22T15:39:57;51.30;17.30
23311;DHT22;11828;51.508;18.118;2022-07-22T15:42:23;50.90;17.70
23311;DHT22;11828;51.508;18.118;2022-07-22T15:44:49;50.50;17.80
23311;DHT22;11828;51.508;18.118;2022-07-22T15:47:15;49.90;18.00
23311;DHT22;11828;51.508;18.118;2022-07-22T15:49:41;49.50;18.10
23311;DHT22;11828;51.508;18.118;2022-07-22T15:52:07;49.00;18.40
23311;DHT22;11828;51.508;18.118;2022-07-22T15:57:02;48.30;18.60
23311;DHT22;11828;51.508;18.118;2022-07-22T15:59:47;47.90;19.10
23311;DHT22;11828;51.508;18.118;2022-07-22T16:02:14;47.60;19.50
23311;DHT22;11828;51.508;18.118;2022-07-22T16:04:40;47.30;19.50
23311;DHT22;11828;51.508;18.118;2022-07-22T16:07:06;47.10;19.80